La rose des vents
Donnes mto: Semaine 07/03/22 - 13/03/22 (S 10)
Date Horaire Temp. E. Hum. E. P.atmo. Pluie Vent 1mn Direction Ensoleilleme Ev.Tr. Solaire P. de rose Temp au vent Rafales
07/03/2022 00:00 5,8 C 72 % 1015,8 hPa 0,0 l/m 1,6 km/h (1 Bft) SO 0,00 h 0,000 mm 0 W/m 1,1 C 5,8 C 2,8 km/h (1 Bft)
07/03/2022 01:00 5,7 C 73 % 1016,2 hPa 0,0 l/m 0,1 km/h (0 Bft) SO 0,00 h 0,000 mm 0 W/m 1,3 C 5,7 C 0,4 km/h (0 Bft)
07/03/2022 02:00 5,0 C 76 % 1016,3 hPa 0,0 l/m 0,0 km/h (0 Bft) N 0,00 h 0,000 mm 0 W/m 1,1 C 5,0 C 0,1 km/h (0 Bft)
07/03/2022 03:00 4,6 C 78 % 1016,0 hPa 0,0 l/m 1,0 km/h (0 Bft) SO 0,00 h 0,000 mm 0 W/m 1,1 C 4,6 C 2,5 km/h (1 Bft)
07/03/2022 04:00 4,5 C 78 % 1015,8 hPa 0,0 l/m 0,4 km/h (0 Bft) SO 0,00 h 0,000 mm 0 W/m 1,0 C 4,5 C 1,5 km/h (1 Bft)
07/03/2022 05:00 3,7 C 80 % 1016,1 hPa 0,0 l/m 0,2 km/h (0 Bft) SO 0,00 h 0,000 mm 0 W/m 0,6 C 3,7 C 1,4 km/h (1 Bft)
07/03/2022 06:00 3,3 C 81 % 1016,2 hPa 0,0 l/m 0,2 km/h (0 Bft) SO 0,00 h 0,000 mm 5 W/m 0,3 C 3,3 C 1,1 km/h (1 Bft)
07/03/2022 07:00 3,2 C 82 % 1016,6 hPa 0,0 l/m 0,4 km/h (0 Bft) SO 0,08 h 0,000 mm 37 W/m 0,4 C 3,2 C 2,2 km/h (1 Bft)
07/03/2022 08:00 5,2 C 78 % 1017,2 hPa 0,0 l/m 0,0 km/h (0 Bft) N 0,98 h 0,025 mm 182 W/m 1,7 C 5,2 C 0,0 km/h (0 Bft)
07/03/2022 09:00 8,7 C 68 % 1017,4 hPa 0,0 l/m 0,0 km/h (0 Bft) N 1,00 h 0,076 mm 344 W/m 3,2 C 8,7 C 0,0 km/h (0 Bft)
07/03/2022 10:00 11,6 C 58 % 1017,5 hPa 0,0 l/m 0,6 km/h (0 Bft) S 1,00 h 0,152 mm 480 W/m 3,5 C 11,6 C 1,9 km/h (1 Bft)
07/03/2022 11:00 12,8 C 53 % 1017,4 hPa 0,0 l/m 2,5 km/h (1 Bft) S 1,00 h 0,229 mm 578 W/m 3,4 C 12,8 C 5,9 km/h (2 Bft)
07/03/2022 12:00 13,8 C 51 % 1017,0 hPa 0,0 l/m 2,6 km/h (1 Bft) S 1,00 h 0,305 mm 665 W/m 3,9 C 13,8 C 7,2 km/h (2 Bft)
07/03/2022 13:00 14,0 C 50 % 1016,6 hPa 0,0 l/m 1,8 km/h (1 Bft) E 0,85 h 0,356 mm 553 W/m 3,6 C 14,0 C 6,0 km/h (2 Bft)
07/03/2022 14:00 13,5 C 52 % 1016,1 hPa 0,0 l/m 1,7 km/h (1 Bft) E 0,78 h 0,305 mm 472 W/m 3,9 C 13,5 C 5,6 km/h (1 Bft)
07/03/2022 15:00 12,4 C 56 % 1016,0 hPa 0,0 l/m 1,6 km/h (1 Bft) E 0,67 h 0,254 mm 330 W/m 3,8 C 12,4 C 5,4 km/h (1 Bft)
07/03/2022 16:00 11,9 C 56 % 1015,7 hPa 0,0 l/m 3,6 km/h (1 Bft) S-SE 1,00 h 0,178 mm 242 W/m 3,4 C 11,9 C 7,0 km/h (2 Bft)
07/03/2022 17:00 10,3 C 61 % 1015,8 hPa 0,0 l/m 3,4 km/h (1 Bft) S 0,42 h 0,152 mm 90 W/m 3,2 C 10,3 C 6,1 km/h (2 Bft)
07/03/2022 18:00 8,5 C 67 % 1016,3 hPa 0,0 l/m 0,3 km/h (0 Bft) S 0,03 h 0,051 mm 12 W/m 2,8 C 8,5 C 0,9 km/h (0 Bft)
07/03/2022 19:00 7,1 C 73 % 1016,6 hPa 0,0 l/m 0,0 km/h (0 Bft) S 0,00 h 0,000 mm 0 W/m 2,6 C 7,1 C 0,4 km/h (0 Bft)
07/03/2022 20:00 6,2 C 76 % 1016,7 hPa 0,0 l/m 0,9 km/h (0 Bft) S 0,00 h 0,000 mm 0 W/m 2,2 C 6,2 C 2,9 km/h (1 Bft)
07/03/2022 21:00 5,5 C 79 % 1016,7 hPa 0,0 l/m 0,4 km/h (0 Bft) S-SO 0,00 h 0,000 mm 0 W/m 2,1 C 5,5 C 1,7 km/h (1 Bft)
07/03/2022 22:00 5,0 C 80 % 1016,7 hPa 0,0 l/m 0,0 km/h (0 Bft) S-SO 0,00 h 0,000 mm 0 W/m 1,8 C 5,0 C 0,7 km/h (0 Bft)
07/03/2022 23:00 4,7 C 81 % 1016,8 hPa 0,0 l/m 0,0 km/h (0 Bft) S-SO 0,00 h 0,000 mm 0 W/m 1,7 C 4,7 C 0,4 km/h (0 Bft)
08/03/2022 00:00 4,6 C 81 % 1017,1 hPa 0,0 l/m 0,1 km/h (0 Bft) S-SO 0,00 h 0,000 mm 0 W/m 1,6 C 4,6 C 0,7 km/h (0 Bft)
08/03/2022 01:00 4,2 C 81 % 1017,2 hPa 0,0 l/m 0,1 km/h (0 Bft) S-SO 0,00 h 0,000 mm 0 W/m 1,3 C 4,2 C 0,9 km/h (0 Bft)
08/03/2022 02:00 4,2 C 81 % 1017,7 hPa 0,0 l/m 0,2 km/h (0 Bft) S-SO 0,00 h 0,000 mm 0 W/m 1,2 C 4,2 C 0,8 km/h (0 Bft)
08/03/2022 03:00 4,3 C 78 % 1017,6 hPa 0,0 l/m 0,1 km/h (0 Bft) S-SO 0,00 h 0,000 mm 0 W/m 0,9 C 4,3 C 1,3 km/h (1 Bft)
08/03/2022 04:00 4,1 C 78 % 1017,8 hPa 0,0 l/m 0,2 km/h (0 Bft) S-SO 0,00 h 0,025 mm 0 W/m 0,6 C 4,1 C 0,8 km/h (0 Bft)
08/03/2022 05:00 4,4 C 77 % 1018,1 hPa 0,0 l/m 0,2 km/h (0 Bft) S-SO 0,00 h 0,025 mm 0 W/m 0,8 C 4,4 C 1,4 km/h (1 Bft)
08/03/2022 06:00 5,4 C 75 % 1018,5 hPa 0,0 l/m 0,1 km/h (0 Bft) S-SO 0,00 h 0,025 mm 5 W/m 1,4 C 5,4 C 0,8 km/h (0 Bft)
08/03/2022 07:00 5,9 C 77 % 1018,9 hPa 0,0 l/m 0,0 km/h (0 Bft) N 0,25 h 0,000 mm 45 W/m 2,1 C 5,9 C 0,1 km/h (0 Bft)
08/03/2022 08:00 7,4 C 78 % 1019,4 hPa 0,0 l/m 0,0 km/h (0 Bft) N 0,48 h 0,025 mm 151 W/m 3,9 C 7,4 C 0,0 km/h (0 Bft)
08/03/2022 09:00 9,7 C 71 % 1019,6 hPa 0,0 l/m 0,0 km/h (0 Bft) N 0,10 h 0,076 mm 171 W/m 4,7 C 9,7 C 0,0 km/h (0 Bft)
08/03/2022 10:00 9,9 C 69 % 1020,3 hPa 0,0 l/m 0,0 km/h (0 Bft) S-SE 0,00 h 0,076 mm 97 W/m 4,6 C 9,9 C 0,4 km/h (0 Bft)
08/03/2022 11:00 9,4 C 73 % 1020,6 hPa 0,0 l/m 0,0 km/h (0 Bft) N 0,00 h 0,051 mm 109 W/m 4,9 C 9,4 C 0,1 km/h (0 Bft)
08/03/2022 12:00 9,2 C 72 % 1020,5 hPa 0,0 l/m 0,2 km/h (0 Bft) S-SE 0,00 h 0,051 mm 66 W/m 4,5 C 9,2 C 1,0 km/h (0 Bft)
08/03/2022 13:00 9,6 C 70 % 1020,2 hPa 0,0 l/m 0,4 km/h (0 Bft) S-SE 0,00 h 0,025 mm 161 W/m 4,3 C 9,6 C 2,4 km/h (1 Bft)
08/03/2022 14:00 10,1 C 66 % 1020,0 hPa 0,0 l/m 1,1 km/h (1 Bft) E 0,00 h 0,076 mm 119 W/m 4,0 C 10,0 C 4,5 km/h (1 Bft)
08/03/2022 15:00 9,5 C 67 % 1020,1 hPa 0,0 l/m 1,0 km/h (0 Bft) E 0,00 h 0,076 mm 54 W/m 3,7 C 9,5 C 3,1 km/h (1 Bft)
08/03/2022 16:00 8,7 C 71 % 1020,2 hPa 0,0 l/m 0,1 km/h (0 Bft) E 0,00 h 0,025 mm 20 W/m 3,7 C 8,7 C 0,6 km/h (0 Bft)
08/03/2022 17:00 8,2 C 72 % 1020,5 hPa 0,0 l/m 0,0 km/h (0 Bft) N 0,00 h 0,025 mm 9 W/m 3,5 C 8,2 C 0,0 km/h (0 Bft)
08/03/2022 18:00 7,8 C 73 % 1020,8 hPa 0,0 l/m 0,0 km/h (0 Bft) N 0,00 h 0,000 mm 0 W/m 3,3 C 7,8 C 0,0 km/h (0 Bft)
08/03/2022 19:00 7,5 C 74 % 1021,3 hPa 0,0 l/m 0,0 km/h (0 Bft) N 0,00 h 0,000 mm 0 W/m 3,2 C 7,5 C 0,0 km/h (0 Bft)
08/03/2022 20:00 7,3 C 76 % 1021,5 hPa 0,0 l/m 0,0 km/h (0 Bft) N 0,00 h 0,025 mm 0 W/m 3,3 C 7,3 C 0,1 km/h (0 Bft)
08/03/2022 21:00 7,2 C 77 % 1021,6 hPa 0,0 l/m 0,0 km/h (0 Bft) N 0,00 h 0,025 mm 0 W/m 3,3 C 7,2 C 0,2 km/h (0 Bft)
08/03/2022 22:00 7,2 C 75 % 1021,7 hPa 0,0 l/m 0,0 km/h (0 Bft) E 0,00 h 0,025 mm 0 W/m 3,1 C 7,2 C 0,1 km/h (0 Bft)
08/03/2022 23:00 7,2 C 75 % 1021,8 hPa 0,0 l/m 0,4 km/h (0 Bft) E 0,00 h 0,025 mm 0 W/m 3,1 C 7,2 C 1,7 km/h (1 Bft)
09/03/2022 00:00 7,2 C 75 % 1022,3 hPa 0,0 l/m 0,0 km/h (0 Bft) E 0,00 h 0,025 mm 0 W/m 3,1 C 7,2 C 0,3 km/h (0 Bft)
09/03/2022 01:00 7,2 C 75 % 1022,6 hPa 0,0 l/m 0,1 km/h (0 Bft) E 0,00 h 0,025 mm 0 W/m 3,1 C 7,2 C 1,0 km/h (0 Bft)
09/03/2022 02:00 7,3 C 74 % 1022,6 hPa 0,0 l/m 0,1 km/h (0 Bft) E 0,00 h 0,025 mm 0 W/m 3,0 C 7,3 C 0,7 km/h (0 Bft)
09/03/2022 03:00 7,0 C 75 % 1022,2 hPa 0,0 l/m 0,2 km/h (0 Bft) E 0,00 h 0,025 mm 0 W/m 2,8 C 7,0 C 0,6 km/h (0 Bft)
09/03/2022 04:00 6,4 C 77 % 1022,2 hPa 0,0 l/m 0,0 km/h (0 Bft) N 0,00 h 0,025 mm 0 W/m 2,7 C 6,4 C 0,0 km/h (0 Bft)
09/03/2022 05:00 5,8 C 79 % 1022,7 hPa 0,0 l/m 0,0 km/h (0 Bft) N 0,00 h 0,025 mm 0 W/m 2,5 C 5,8 C 0,0 km/h (0 Bft)
09/03/2022 06:00 5,5 C 80 % 1022,7 hPa 0,0 l/m 0,0 km/h (0 Bft) N 0,00 h 0,025 mm 5 W/m 2,3 C 5,5 C 0,3 km/h (0 Bft)
09/03/2022 07:00 4,8 C 82 % 1023,2 hPa 0,0 l/m 0,0 km/h (0 Bft) N 0,00 h 0,000 mm 33 W/m 2,0 C 4,8 C 0,4 km/h (0 Bft)
09/03/2022 08:00 6,2 C 80 % 1023,7 hPa 0,0 l/m 0,0 km/h (0 Bft) N 0,95 h 0,025 mm 180 W/m 3,0 C 6,2 C 0,0 km/h (0 Bft)
09/03/2022 09:00 9,9 C 71 % 1024,1 hPa 0,0 l/m 0,0 km/h (0 Bft) N 1,00 h 0,076 mm 336 W/m 4,9 C 9,9 C 0,2 km/h (0 Bft)
09/03/2022 10:00 12,4 C 63 % 1024,0 hPa 0,0 l/m 1,5 km/h (1 Bft) S 0,80 h 0,152 mm 448 W/m 5,5 C 12,4 C 4,2 km/h (1 Bft)
09/03/2022 11:00 12,7 C 63 % 1023,8 hPa 0,0 l/m 3,3 km/h (1 Bft) S 0,58 h 0,229 mm 438 W/m 5,9 C 12,7 C 6,7 km/h (2 Bft)
09/03/2022 12:00 13,8 C 62 % 1023,5 hPa 0,0 l/m 2,6 km/h (1 Bft) E 1,00 h 0,254 mm 584 W/m 6,6 C 13,8 C 6,7 km/h (2 Bft)
09/03/2022 13:00 14,2 C 60 % 1023,4 hPa 0,0 l/m 1,4 km/h (1 Bft) S-SE 0,90 h 0,305 mm 525 W/m 6,4 C 14,2 C 4,9 km/h (1 Bft)
09/03/2022 14:00 13,9 C 60 % 1023,1 hPa 0,0 l/m 1,1 km/h (1 Bft) E 0,45 h 0,279 mm 346 W/m 6,3 C 13,9 C 4,3 km/h (1 Bft)
09/03/2022 15:00 13,4 C 62 % 1022,7 hPa 0,0 l/m 4,7 km/h (1 Bft) S 0,92 h 0,203 mm 400 W/m 6,2 C 13,4 C 9,3 km/h (2 Bft)
09/03/2022 16:00 12,9 C 64 % 1022,1 hPa 0,0 l/m 5,3 km/h (1 Bft) S 1,00 h 0,229 mm 251 W/m 6,3 C 12,9 C 9,4 km/h (2 Bft)
09/03/2022 17:00 11,8 C 68 % 1022,0 hPa 0,0 l/m 3,5 km/h (1 Bft) S 0,53 h 0,152 mm 99 W/m 6,1 C 11,8 C 6,5 km/h (2 Bft)
09/03/2022 18:00 9,9 C 75 % 1022,1 hPa 0,0 l/m 0,8 km/h (0 Bft) S 0,00 h 0,076 mm 14 W/m 5,6 C 9,9 C 1,5 km/h (1 Bft)
09/03/2022 19:00 8,6 C 79 % 1022,7 hPa 0,0 l/m 0,0 km/h (0 Bft) N 0,00 h 0,000 mm 0 W/m 5,1 C 8,6 C 0,0 km/h (0 Bft)
09/03/2022 20:00 7,4 C 81 % 1022,7 hPa 0,0 l/m 0,0 km/h (0 Bft) N 0,00 h 0,025 mm 0 W/m 4,4 C 7,4 C 0,0 km/h (0 Bft)
09/03/2022 21:00 6,7 C 84 % 1023,0 hPa 0,0 l/m 0,0 km/h (0 Bft) N 0,00 h 0,000 mm 0 W/m 4,2 C 6,7 C 0,1 km/h (0 Bft)
09/03/2022 22:00 6,4 C 86 % 1023,4 hPa 0,0 l/m 0,1 km/h (0 Bft) S 0,00 h 0,000 mm 0 W/m 4,2 C 6,4 C 1,0 km/h (0 Bft)
09/03/2022 23:00 6,3 C 85 % 1023,5 hPa 0,0 l/m 0,0 km/h (0 Bft) N 0,00 h 0,000 mm 0 W/m 4,0 C 6,3 C 0,1 km/h (0 Bft)
10/03/2022 00:00 6,2 C 84 % 1023,4 hPa 0,0 l/m 0,9 km/h (0 Bft) S 0,00 h 0,000 mm 0 W/m 3,8 C 6,2 C 1,9 km/h (1 Bft)
10/03/2022 01:00 5,5 C 82 % 1023,6 hPa 0,0 l/m 0,5 km/h (0 Bft) S 0,00 h 0,000 mm 0 W/m 2,7 C 5,5 C 1,4 km/h (1 Bft)
10/03/2022 02:00 5,5 C 82 % 1023,7 hPa 0,0 l/m 0,1 km/h (0 Bft) S 0,00 h 0,000 mm 0 W/m 2,7 C 5,5 C 0,6 km/h (0 Bft)
10/03/2022 03:00 5,7 C 82 % 1023,6 hPa 0,0 l/m 0,1 km/h (0 Bft) S 0,00 h 0,000 mm 0 W/m 2,9 C 5,7 C 1,2 km/h (1 Bft)
10/03/2022 04:00 5,9 C 84 % 1023,6 hPa 0,0 l/m 0,6 km/h (0 Bft) NO 0,00 h 0,000 mm 0 W/m 3,5 C 5,9 C 2,5 km/h (1 Bft)
10/03/2022 05:00 6,7 C 81 % 1023,8 hPa 0,0 l/m 1,2 km/h (1 Bft) NO 0,00 h 0,000 mm 0 W/m 3,7 C 6,6 C 4,3 km/h (1 Bft)
10/03/2022 06:00 6,8 C 79 % 1024,1 hPa 0,0 l/m 1,7 km/h (1 Bft) NO 0,00 h 0,025 mm 6 W/m 3,3 C 6,8 C 4,5 km/h (1 Bft)
10/03/2022 07:00 6,8 C 78 % 1024,3 hPa 0,0 l/m 1,1 km/h (1 Bft) NO 0,23 h 0,000 mm 40 W/m 3,2 C 6,8 C 3,9 km/h (1 Bft)
10/03/2022 08:00 7,5 C 78 % 1024,7 hPa 0,0 l/m 0,2 km/h (0 Bft) NO 0,42 h 0,025 mm 166 W/m 4,0 C 7,5 C 0,9 km/h (0 Bft)
10/03/2022 09:00 11,5 C 74 % 1024,8 hPa 0,0 l/m 0,1 km/h (0 Bft) E 1,00 h 0,076 mm 364 W/m 7,0 C 11,5 C 0,3 km/h (0 Bft)
10/03/2022 10:00 14,5 C 66 % 1024,7 hPa 0,0 l/m 0,4 km/h (0 Bft) E 0,75 h 0,178 mm 427 W/m 8,2 C 14,5 C 1,8 km/h (1 Bft)
10/03/2022 11:00 15,3 C 61 % 1024,3 hPa 0,0 l/m 1,4 km/h (1 Bft) S 1,00 h 0,229 mm 589 W/m 7,8 C 15,3 C 4,0 km/h (1 Bft)
10/03/2022 12:00 15,1 C 63 % 1023,9 hPa 0,0 l/m 1,8 km/h (1 Bft) S 0,70 h 0,305 mm 500 W/m 8,1 C 15,1 C 4,8 km/h (1 Bft)
10/03/2022 13:00 14,8 C 65 % 1023,4 hPa 0,0 l/m 3,1 km/h (1 Bft) S-SE 0,53 h 0,254 mm 408 W/m 8,2 C 14,8 C 6,6 km/h (2 Bft)
10/03/2022 14:00 14,7 C 64 % 1023,0 hPa 0,0 l/m 3,2 km/h (1 Bft) S 0,53 h 0,229 mm 368 W/m 8,0 C 14,7 C 7,6 km/h (2 Bft)
10/03/2022 15:00 14,7 C 65 % 1022,6 hPa 0,0 l/m 3,7 km/h (1 Bft) S 0,38 h 0,203 mm 299 W/m 8,2 C 14,7 C 7,4 km/h (2 Bft)
10/03/2022 16:00 13,0 C 74 % 1022,3 hPa 0,0 l/m 4,5 km/h (1 Bft) S 0,00 h 0,178 mm 66 W/m 8,4 C 13,0 C 8,1 km/h (2 Bft)
10/03/2022 17:00 12,2 C 81 % 1022,3 hPa 0,0 l/m 2,8 km/h (1 Bft) S 0,17 h 0,051 mm 69 W/m 9,0 C 12,2 C 5,2 km/h (1 Bft)
10/03/2022 18:00 11,6 C 83 % 1022,4 hPa 0,0 l/m 0,3 km/h (0 Bft) S 0,00 h 0,051 mm 9 W/m 8,8 C 11,6 C 0,7 km/h (0 Bft)
10/03/2022 19:00 10,8 C 85 % 1022,5 hPa 0,0 l/m 0,0 km/h (0 Bft) N 0,00 h 0,000 mm 0 W/m 8,3 C 10,8 C 0,0 km/h (0 Bft)
10/03/2022 20:00 10,1 C 86 % 1022,5 hPa 0,0 l/m 0,0 km/h (0 Bft) N 0,00 h 0,000 mm 0 W/m 8,0 C 10,1 C 0,0 km/h (0 Bft)
10/03/2022 21:00 9,7 C 88 % 1022,4 hPa 0,0 l/m 0,0 km/h (0 Bft) N 0,00 h 0,000 mm 0 W/m 7,7 C 9,7 C 0,0 km/h (0 Bft)
10/03/2022 22:00 9,5 C 90 % 1022,4 hPa 0,0 l/m 0,0 km/h (0 Bft) N 0,00 h 0,000 mm 0 W/m 7,9 C 9,5 C 0,0 km/h (0 Bft)
10/03/2022 23:00 9,2 C 90 % 1022,3 hPa 0,0 l/m 0,0 km/h (0 Bft) N 0,00 h 0,000 mm 0 W/m 7,7 C 9,2 C 0,0 km/h (0 Bft)
11/03/2022 00:00 8,9 C 92 % 1022,3 hPa 0,0 l/m 0,0 km/h (0 Bft) N 0,00 h 0,000 mm 0 W/m 7,7 C 8,9 C 0,0 km/h (0 Bft)
11/03/2022 01:00 9,0 C 93 % 1022,2 hPa 0,0 l/m 0,0 km/h (0 Bft) N 0,00 h 0,000 mm 0 W/m 8,0 C 9,0 C 0,0 km/h (0 Bft)
11/03/2022 02:00 8,7 C 93 % 1021,7 hPa 0,0 l/m 0,0 km/h (0 Bft) N 0,00 h 0,000 mm 0 W/m 7,6 C 8,7 C 0,0 km/h (0 Bft)
11/03/2022 03:00 8,5 C 93 % 1021,7 hPa 0,0 l/m 0,0 km/h (0 Bft) N 0,00 h 0,000 mm 0 W/m 7,5 C 8,5 C 0,1 km/h (0 Bft)
11/03/2022 04:00 8,7 C 94 % 1021,6 hPa 0,0 l/m 0,0 km/h (0 Bft) N 0,00 h 0,000 mm 0 W/m 7,9 C 8,7 C 0,2 km/h (0 Bft)
11/03/2022 05:00 8,6 C 94 % 1021,8 hPa 0,0 l/m 0,0 km/h (0 Bft) N 0,00 h 0,000 mm 0 W/m 7,7 C 8,6 C 0,0 km/h (0 Bft)
11/03/2022 06:00 8,2 C 94 % 1022,1 hPa 0,0 l/m 0,0 km/h (0 Bft) N 0,00 h 0,000 mm 5 W/m 7,3 C 8,2 C 0,0 km/h (0 Bft)
11/03/2022 07:00 7,8 C 93 % 1022,3 hPa 0,0 l/m 0,0 km/h (0 Bft) N 0,00 h 0,000 mm 23 W/m 6,7 C 7,8 C 0,0 km/h (0 Bft)
11/03/2022 08:00 8,1 C 93 % 1022,7 hPa 0,0 l/m 0,0 km/h (0 Bft) N 0,15 h 0,000 mm 108 W/m 7,0 C 8,1 C 0,0 km/h (0 Bft)
11/03/2022 09:00 10,7 C 88 % 1023,1 hPa 0,0 l/m 0,1 km/h (0 Bft) N-NE 0,42 h 0,051 mm 234 W/m 8,7 C 10,7 C 1,5 km/h (1 Bft)
11/03/2022 10:00 12,8 C 75 % 1023,0 hPa 0,0 l/m 0,7 km/h (0 Bft) E 0,47 h 0,102 mm 358 W/m 8,4 C 12,8 C 3,6 km/h (1 Bft)
11/03/2022 11:00 14,3 C 64 % 1022,7 hPa 0,0 l/m 2,3 km/h (1 Bft) E 0,68 h 0,178 mm 409 W/m 7,6 C 14,3 C 6,3 km/h (2 Bft)
11/03/2022 12:00 14,3 C 62 % 1022,7 hPa 0,0 l/m 1,4 km/h (1 Bft) E 0,47 h 0,229 mm 380 W/m 7,0 C 14,3 C 5,5 km/h (1 Bft)
11/03/2022 13:00 14,5 C 55 % 1022,2 hPa 0,0 l/m 1,9 km/h (1 Bft) E 0,73 h 0,203 mm 454 W/m 5,5 C 14,5 C 6,7 km/h (2 Bft)
11/03/2022 14:00 15,0 C 52 % 1021,8 hPa 0,0 l/m 1,3 km/h (1 Bft) E 0,92 h 0,254 mm 432 W/m 5,3 C 15,0 C 5,6 km/h (1 Bft)
11/03/2022 15:00 14,6 C 53 % 1021,3 hPa 0,0 l/m 1,7 km/h (1 Bft) E 0,70 h 0,229 mm 318 W/m 5,2 C 14,6 C 5,9 km/h (2 Bft)
11/03/2022 16:00 13,3 C 59 % 1020,8 hPa 0,0 l/m 1,0 km/h (0 Bft) E-SE 0,00 h 0,178 mm 145 W/m 5,3 C 13,3 C 4,9 km/h (1 Bft)
11/03/2022 17:00 12,0 C 62 % 1020,6 hPa 0,0 l/m 1,6 km/h (1 Bft) E 0,00 h 0,076 mm 55 W/m 4,9 C 12,0 C 5,5 km/h (1 Bft)
11/03/2022 18:00 10,9 C 63 % 1020,9 hPa 0,0 l/m 0,2 km/h (0 Bft) E-NE 0,00 h 0,051 mm 12 W/m 4,1 C 10,9 C 1,6 km/h (1 Bft)
11/03/2022 19:00 10,2 C 62 % 1021,0 hPa 0,0 l/m 0,2 km/h (0 Bft) E-NE 0,00 h 0,000 mm 0 W/m 3,4 C 10,2 C 1,2 km/h (1 Bft)
11/03/2022 20:00 10,0 C 61 % 1021,5 hPa 0,0 l/m 0,0 km/h (0 Bft) S-SE 0,00 h 0,025 mm 0 W/m 2,8 C 10,0 C 0,2 km/h (0 Bft)
11/03/2022 21:00 9,4 C 60 % 1021,4 hPa 0,0 l/m 0,0 km/h (0 Bft) N 0,00 h 0,025 mm 0 W/m 2,2 C 9,4 C 0,1 km/h (0 Bft)
11/03/2022 22:00 8,8 C 58 % 1021,4 hPa 0,0 l/m 0,0 km/h (0 Bft) N 0,00 h 0,025 mm 0 W/m 1,1 C 8,8 C 0,2 km/h (0 Bft)
11/03/2022 23:00 8,1 C 55 % 1021,5 hPa 0,0 l/m 0,0 km/h (0 Bft) N 0,00 h 0,025 mm 0 W/m -0,3 C 8,1 C 0,0 km/h (0 Bft)
12/03/2022 00:00 7,9 C 54 % 1021,6 hPa 0,0 l/m 0,0 km/h (0 Bft) N 0,00 h 0,025 mm 0 W/m -0,7 C 7,9 C 0,0 km/h (0 Bft)
12/03/2022 01:00 7,9 C 55 % 1021,4 hPa 0,0 l/m 0,0 km/h (0 Bft) N 0,00 h 0,025 mm 0 W/m -0,6 C 7,9 C 0,0 km/h (0 Bft)
12/03/2022 02:00 7,6 C 57 % 1021,1 hPa 0,0 l/m 0,0 km/h (0 Bft) N 0,00 h 0,025 mm 0 W/m -0,3 C 7,6 C 0,0 km/h (0 Bft)
12/03/2022 03:00 7,4 C 59 % 1020,8 hPa 0,0 l/m 0,1 km/h (0 Bft) S-SE 0,00 h 0,025 mm 0 W/m -0,1 C 7,4 C 0,7 km/h (0 Bft)
12/03/2022 04:00 7,5 C 61 % 1020,8 hPa 0,0 l/m 0,2 km/h (0 Bft) S-SE 0,00 h 0,025 mm 0 W/m 0,5 C 7,5 C 1,5 km/h (1 Bft)
12/03/2022 05:00 7,9 C 67 % 1020,8 hPa 0,0 l/m 0,5 km/h (0 Bft) S-SE 0,00 h 0,025 mm 0 W/m 2,1 C 7,9 C 2,0 km/h (1 Bft)
12/03/2022 06:00 8,2 C 68 % 1021,0 hPa 0,0 l/m 0,4 km/h (0 Bft) SE 0,02 h 0,025 mm 7 W/m 2,7 C 8,2 C 1,9 km/h (1 Bft)
12/03/2022 07:00 8,4 C 69 % 1021,5 hPa 0,0 l/m 0,4 km/h (0 Bft) N 0,05 h 0,000 mm 39 W/m 3,1 C 8,4 C 2,1 km/h (1 Bft)
12/03/2022 08:00 9,2 C 67 % 1021,6 hPa 0,0 l/m 0,1 km/h (0 Bft) N 0,18 h 0,025 mm 130 W/m 3,4 C 9,2 C 0,7 km/h (0 Bft)
12/03/2022 09:00 11,9 C 63 % 1021,9 hPa 0,0 l/m 1,2 km/h (1 Bft) E 0,63 h 0,076 mm 261 W/m 5,0 C 11,9 C 6,2 km/h (2 Bft)
12/03/2022 10:00 12,8 C 58 % 1021,5 hPa 0,0 l/m 1,7 km/h (1 Bft) E 0,33 h 0,127 mm 244 W/m 4,8 C 12,8 C 8,1 km/h (2 Bft)
12/03/2022 11:00 12,4 C 56 % 1021,5 hPa 0,0 l/m 3,9 km/h (1 Bft) E 0,05 h 0,127 mm 209 W/m 4,0 C 12,4 C 13,5 km/h (3 Bft)
12/03/2022 12:00 11,9 C 57 % 1021,5 hPa 0,0 l/m 4,1 km/h (1 Bft) E 0,00 h 0,127 mm 148 W/m 3,7 C 11,9 C 12,3 km/h (3 Bft)
12/03/2022 13:00 11,9 C 57 % 1021,2 hPa 0,0 l/m 6,0 km/h (2 Bft) E 0,00 h 0,102 mm 151 W/m 3,7 C 11,9 C 17,4 km/h (3 Bft)
12/03/2022 14:00 11,2 C 61 % 1020,9 hPa 0,0 l/m 3,8 km/h (1 Bft) E 0,00 h 0,102 mm 93 W/m 3,9 C 11,2 C 12,0 km/h (2 Bft)
12/03/2022 15:00 11,1 C 60 % 1020,6 hPa 0,0 l/m 2,6 km/h (1 Bft) E 0,00 h 0,076 mm 58 W/m 3,7 C 11,1 C 8,7 km/h (2 Bft)
12/03/2022 16:00 11,3 C 61 % 1020,5 hPa 0,0 l/m 1,7 km/h (1 Bft) E 0,00 h 0,051 mm 47 W/m 4,0 C 11,3 C 7,0 km/h (2 Bft)
12/03/2022 17:00 11,5 C 60 % 1020,4 hPa 0,0 l/m 1,8 km/h (1 Bft) NE 0,00 h 0,025 mm 37 W/m 4,0 C 11,5 C 7,3 km/h (2 Bft)
12/03/2022 18:00 11,2 C 59 % 1020,6 hPa 0,0 l/m 1,7 km/h (1 Bft) N-NE 0,00 h 0,025 mm 9 W/m 3,6 C 11,2 C 7,4 km/h (2 Bft)
12/03/2022 19:00 11,0 C 59 % 1021,0 hPa 0,0 l/m 1,1 km/h (0 Bft) N-NE 0,00 h 0,025 mm 0 W/m 3,4 C 11,0 C 5,3 km/h (1 Bft)
12/03/2022 20:00 10,8 C 58 % 1021,4 hPa 0,0 l/m 1,1 km/h (1 Bft) N-NE 0,00 h 0,025 mm 0 W/m 2,9 C 10,8 C 6,0 km/h (2 Bft)
12/03/2022 21:00 10,8 C 58 % 1021,5 hPa 0,0 l/m 0,7 km/h (0 Bft) N-NE 0,00 h 0,025 mm 0 W/m 2,8 C 10,8 C 4,4 km/h (1 Bft)
12/03/2022 22:00 10,3 C 60 % 1021,4 hPa 0,0 l/m 0,3 km/h (0 Bft) N-NE 0,00 h 0,025 mm 0 W/m 2,9 C 10,3 C 2,7 km/h (1 Bft)
12/03/2022 23:00 10,3 C 59 % 1021,3 hPa 0,0 l/m 0,6 km/h (0 Bft) N-NE 0,00 h 0,025 mm 0 W/m 2,8 C 10,3 C 3,9 km/h (1 Bft)
13/03/2022 00:00 10,4 C 58 % 1021,3 hPa 0,0 l/m 0,5 km/h (0 Bft) E-SE 0,00 h 0,025 mm 0 W/m 2,5 C 10,4 C 4,1 km/h (1 Bft)
13/03/2022 01:00 10,3 C 59 % 1021,0 hPa 0,0 l/m 1,2 km/h (1 Bft) E 0,00 h 0,025 mm 0 W/m 2,7 C 10,3 C 5,6 km/h (1 Bft)
13/03/2022 02:00 10,3 C 59 % 1020,6 hPa 0,0 l/m 1,6 km/h (1 Bft) N 0,00 h 0,025 mm 0 W/m 2,7 C 10,3 C 7,0 km/h (2 Bft)
13/03/2022 03:00 10,2 C 60 % 1020,3 hPa 0,0 l/m 1,4 km/h (1 Bft) E 0,00 h 0,025 mm 0 W/m 2,8 C 10,2 C 6,2 km/h (2 Bft)
13/03/2022 04:00 9,9 C 62 % 1020,1 hPa 0,0 l/m 2,2 km/h (1 Bft) N-NE 0,00 h 0,025 mm 0 W/m 3,0 C 9,9 C 7,8 km/h (2 Bft)
13/03/2022 05:00 9,8 C 62 % 1020,3 hPa 0,0 l/m 2,0 km/h (1 Bft) N-NE 0,00 h 0,025 mm 0 W/m 3,0 C 9,8 C 8,0 km/h (2 Bft)
13/03/2022 06:00 9,7 C 63 % 1020,3 hPa 0,0 l/m 1,1 km/h (1 Bft) E 0,00 h 0,025 mm 5 W/m 3,0 C 9,7 C 5,6 km/h (1 Bft)
13/03/2022 07:00 9,7 C 64 % 1020,8 hPa 0,0 l/m 2,8 km/h (1 Bft) E-SE 0,00 h 0,000 mm 18 W/m 3,1 C 9,6 C 9,2 km/h (2 Bft)
13/03/2022 08:00 10,0 C 62 % 1021,2 hPa 0,0 l/m 2,2 km/h (1 Bft) E 0,00 h 0,025 mm 64 W/m 3,1 C 10,0 C 7,8 km/h (2 Bft)
13/03/2022 09:00 10,5 C 60 % 1021,4 hPa 0,0 l/m 2,6 km/h (1 Bft) N-NE 0,00 h 0,051 mm 97 W/m 3,1 C 10,5 C 8,7 km/h (2 Bft)
13/03/2022 10:00 10,5 C 62 % 1021,8 hPa 0,0 l/m 1,1 km/h (1 Bft) E 0,00 h 0,051 mm 79 W/m 3,5 C 10,5 C 5,4 km/h (1 Bft)
13/03/2022 11:00 9,2 C 74 % 1022,0 hPa 0,2 l/m 2,7 km/h (1 Bft) N-NE 0,00 h 0,051 mm 67 W/m 4,7 C 9,0 C 9,2 km/h (2 Bft)
13/03/2022 12:00 7,8 C 85 % 1022,2 hPa 0,8 l/m 2,1 km/h (1 Bft) N-NE 0,00 h 0,051 mm 46 W/m 5,4 C 7,7 C 7,4 km/h (2 Bft)
13/03/2022 13:00 7,5 C 89 % 1022,0 hPa 0,4 l/m 0,6 km/h (0 Bft) NE 0,00 h 0,025 mm 66 W/m 5,9 C 7,5 C 3,0 km/h (1 Bft)
13/03/2022 14:00 7,7 C 91 % 1021,6 hPa 0,4 l/m 1,8 km/h (1 Bft) N-NE 0,00 h 0,025 mm 68 W/m 6,3 C 7,7 C 5,2 km/h (1 Bft)
13/03/2022 15:00 7,6 C 89 % 1021,4 hPa 0,0 l/m 1,8 km/h (1 Bft) N-NE 0,00 h 0,025 mm 41 W/m 5,9 C 7,6 C 5,8 km/h (1 Bft)
13/03/2022 16:00 7,7 C 84 % 1021,2 hPa 0,0 l/m 1,7 km/h (1 Bft) N-NE 0,00 h 0,025 mm 19 W/m 5,1 C 7,6 C 5,9 km/h (2 Bft)
13/03/2022 17:00 7,8 C 84 % 1021,4 hPa 0,0 l/m 0,5 km/h (0 Bft) N 0,00 h 0,025 mm 9 W/m 5,2 C 7,8 C 2,2 km/h (1 Bft)
13/03/2022 18:00 7,5 C 85 % 1022,0 hPa 0,4 l/m 1,1 km/h (1 Bft) N-NE 0,00 h 0,000 mm 0 W/m 5,1 C 7,5 C 3,4 km/h (1 Bft)
13/03/2022 19:00 7,1 C 87 % 1022,6 hPa 0,8 l/m 2,1 km/h (1 Bft) NE 0,00 h 0,000 mm 0 W/m 5,0 C 7,0 C 5,2 km/h (1 Bft)
13/03/2022 20:00 6,5 C 92 % 1023,3 hPa 1,0 l/m 1,1 km/h (1 Bft) N-NO 0,00 h 0,000 mm 0 W/m 5,3 C 6,5 C 2,9 km/h (1 Bft)
13/03/2022 21:00 6,5 C 94 % 1023,7 hPa 0,2 l/m 0,1 km/h (0 Bft) N-NE 0,00 h 0,000 mm 0 W/m 5,5 C 6,5 C 0,7 km/h (0 Bft)
13/03/2022 22:00 6,7 C 95 % 1024,1 hPa 0,0 l/m 0,3 km/h (0 Bft) NE 0,00 h 0,000 mm 0 W/m 6,0 C 6,7 C 1,3 km/h (1 Bft)
13/03/2022 23:00 6,9 C 95 % 1024,7 hPa 0,2 l/m 0,1 km/h (0 Bft) NE 0,00 h 0,000 mm 0 W/m 6,2 C 6,9 C 0,3 km/h (0 Bft)
Min-Date _ 07/03/22 07/03/22 07/03/22 - 07/03/22 - - - - 12/03/22 07/03/22 07/03/22
_ Min-Heure 07:03 13:25 16:00 - 00:44 - - - - 00:50 07:03 00:56
Minimum _ 2,9 C 46 % 1015,7 hPa - 0,0 km/h (0 Bft) - - - - -1,0 C 2,9 C 0,0 km/h (0 Bft)
Max-Date _ 10/03/22 13/03/22 10/03/22 13/03/22 09/03/22 - 07/03/22 07/03/22 09/03/22 10/03/22 10/03/22 12/03/22
_ Max-Heure 11:24 23:47 08:30 20:06 15:11 - 07:08 13:00 11:54 17:19 11:24 13:09
Maximum _ 16,0 C 96 % 1024,9 hPa 1,0 l/m 9,7 km/h
S (2 Bft)
- 0,02 h 0,356 mm 763 W/m 9,2 C 16,0 C 33,8 km/h
E (5 Bft)
Moyenne _ 9,1 C 72 % 1021,0 hPa #4,4 l/m 1,0 km/h (0 Bft) E #29:18 h #10,091 mm 190 W/m 4,1 C 9,1 C 3,1 km/h (1 Bft)
Roquefort les pins